createdAt,value
2022-08-27T00:01:00.822Z,33.40
2022-08-27T00:03:30.780Z,33.40
2022-08-27T00:05:59.441Z,33.30
2022-08-27T00:08:28.236Z,33.30
2022-08-27T00:10:57.519Z,33.30
2022-08-27T00:13:26.202Z,33.30
2022-08-27T00:15:55.131Z,33.30
2022-08-27T00:18:23.978Z,33.30
2022-08-27T00:20:53.930Z,33.20
2022-08-27T00:23:22.800Z,33.20
2022-08-27T00:25:52.850Z,33.20
2022-08-27T00:28:21.770Z,33.20
2022-08-27T00:30:50.640Z,33.20
2022-08-27T00:33:19.495Z,33.20
2022-08-27T00:35:48.249Z,33.20
2022-08-27T00:38:20.460Z,33.20
2022-08-27T00:40:50.715Z,33.10
2022-08-27T00:43:24.076Z,33.20
2022-08-27T00:45:56.558Z,33.20
2022-08-27T00:48:31.368Z,33.20
2022-08-27T00:51:00.061Z,33.10
2022-08-27T00:53:34.420Z,33.10
2022-08-27T00:56:10.158Z,33.10
2022-08-27T00:58:43.578Z,33.10
2022-08-27T01:01:17.269Z,33.00
2022-08-27T01:03:50.813Z,33.00
2022-08-27T01:06:23.226Z,33.00
2022-08-27T01:09:01.684Z,32.90
2022-08-27T01:11:31.287Z,32.90
2022-08-27T01:14:01.394Z,32.90
2022-08-27T01:16:36.836Z,32.80
2022-08-27T01:19:17.440Z,32.80
2022-08-27T01:21:58.680Z,32.80
2022-08-27T01:24:41.588Z,32.80
2022-08-27T01:27:18.678Z,32.80
2022-08-27T01:29:48.022Z,32.80
2022-08-27T01:32:22.474Z,32.70
2022-08-27T01:34:52.468Z,32.70
2022-08-27T01:37:23.959Z,32.70
2022-08-27T01:39:59.148Z,32.70
2022-08-27T01:42:34.640Z,32.70
2022-08-27T01:45:08.452Z,32.70
2022-08-27T01:47:38.746Z,32.70
2022-08-27T01:50:13.748Z,32.60
2022-08-27T01:52:42.528Z,32.60
2022-08-27T01:55:18.508Z,32.60
2022-08-27T01:57:48.000Z,32.60
2022-08-27T02:00:22.135Z,32.60
2022-08-27T02:02:51.666Z,32.60
2022-08-27T02:05:21.828Z,32.60
2022-08-27T02:07:51.235Z,32.60
2022-08-27T02:10:26.233Z,32.60
2022-08-27T02:12:55.162Z,32.60
2022-08-27T02:15:25.332Z,32.70
2022-08-27T02:17:54.282Z,32.70
2022-08-27T02:20:24.211Z,32.70
2022-08-27T02:22:56.883Z,32.70
2022-08-27T02:25:29.040Z,32.60
2022-08-27T02:28:00.701Z,32.60
2022-08-27T02:30:32.839Z,32.60
2022-08-27T02:33:02.735Z,32.60
2022-08-27T02:35:34.991Z,32.50
2022-08-27T02:38:03.828Z,32.50
2022-08-27T02:40:34.798Z,32.40
2022-08-27T02:43:03.483Z,32.40
2022-08-27T02:45:32.213Z,32.40
2022-08-27T02:48:04.322Z,32.20
2022-08-27T02:50:33.719Z,32.30
2022-08-27T02:53:03.387Z,32.30
2022-08-27T02:55:33.204Z,32.20
2022-08-27T02:58:04.117Z,32.20
2022-08-27T03:00:33.037Z,32.10
2022-08-27T03:03:03.554Z,32.00
2022-08-27T03:05:32.237Z,32.00
2022-08-27T03:08:01.020Z,32.00
2022-08-27T03:10:29.915Z,31.90
2022-08-27T03:12:58.649Z,31.90
2022-08-27T03:15:29.189Z,31.90
2022-08-27T03:18:15.591Z,31.90
2022-08-27T03:20:48.079Z,31.90
2022-08-27T03:23:18.817Z,31.90
2022-08-27T03:25:52.951Z,31.80
2022-08-27T03:28:23.833Z,31.80
2022-08-27T03:30:58.577Z,31.80
2022-08-27T03:33:28.727Z,31.70
2022-08-27T03:35:57.573Z,31.70
2022-08-27T03:38:27.326Z,31.70
2022-08-27T03:40:56.049Z,31.80
2022-08-27T03:43:25.337Z,31.80
2022-08-27T03:46:00.758Z,31.70
2022-08-27T03:48:32.840Z,31.60
2022-08-27T03:51:06.699Z,31.60
2022-08-27T03:53:37.791Z,31.60
2022-08-27T03:56:08.307Z,31.50
2022-08-27T03:58:39.015Z,31.50
2022-08-27T04:01:10.529Z,31.50
2022-08-27T04:03:39.357Z,31.40
2022-08-27T04:06:08.829Z,31.40
2022-08-27T04:08:37.521Z,31.50
2022-08-27T04:11:08.734Z,31.50
2022-08-27T04:13:38.309Z,31.60
2022-08-27T04:16:08.916Z,31.50
2022-08-27T04:18:37.577Z,31.50
2022-08-27T04:21:11.282Z,31.50
2022-08-27T04:23:40.501Z,31.50
2022-08-27T04:26:11.061Z,31.50
2022-08-27T04:28:39.797Z,31.50
2022-08-27T04:31:11.975Z,31.50
2022-08-27T04:33:51.326Z,31.50
2022-08-27T04:36:21.914Z,31.60
2022-08-27T04:38:51.351Z,31.70
2022-08-27T04:41:25.111Z,31.80
2022-08-27T04:43:57.579Z,31.80
2022-08-27T04:46:30.976Z,31.80
2022-08-27T04:49:02.721Z,31.80
2022-08-27T04:51:36.804Z,31.90
2022-08-27T04:54:08.167Z,31.90
2022-08-27T04:56:38.096Z,31.90
2022-08-27T04:59:10.144Z,32.00
2022-08-27T05:01:42.387Z,32.00
2022-08-27T05:04:14.728Z,32.10
2022-08-27T05:06:45.443Z,32.10
2022-08-27T05:09:16.747Z,32.20
2022-08-27T05:11:47.681Z,32.20
2022-08-27T05:14:17.279Z,32.30
2022-08-27T05:16:47.957Z,32.30
2022-08-27T05:19:17.473Z,32.30
2022-08-27T05:21:49.552Z,32.30
2022-08-27T05:24:19.163Z,32.40
2022-08-27T05:26:49.974Z,32.40
2022-08-27T05:29:19.014Z,32.40
2022-08-27T05:31:49.168Z,32.50
2022-08-27T05:34:24.643Z,32.50
2022-08-27T05:36:56.266Z,32.60
2022-08-27T05:39:24.992Z,32.70
2022-08-27T05:41:58.539Z,32.70
2022-08-27T05:44:42.723Z,32.90
2022-08-27T05:47:13.027Z,32.90
2022-08-27T05:49:41.814Z,33.00
2022-08-27T05:52:12.317Z,33.10
2022-08-27T05:54:41.084Z,33.20
2022-08-27T05:57:10.144Z,33.30
2022-08-27T05:59:56.565Z,33.50
2022-08-27T06:02:27.210Z,33.50
2022-08-27T06:04:55.931Z,33.50
2022-08-27T06:07:24.615Z,33.60
2022-08-27T06:09:53.435Z,33.70
2022-08-27T06:12:28.292Z,33.80
2022-08-27T06:14:57.707Z,34.00
2022-08-27T06:17:28.003Z,34.00
2022-08-27T06:19:57.593Z,34.10
2022-08-27T06:22:26.561Z,34.20
2022-08-27T06:24:55.193Z,34.30
2022-08-27T06:27:23.953Z,34.30
2022-08-27T06:29:52.738Z,34.40
2022-08-27T06:32:21.478Z,34.60
2022-08-27T06:34:51.613Z,34.60
2022-08-27T06:37:20.405Z,34.80
2022-08-27T06:39:49.102Z,34.80
2022-08-27T06:42:18.260Z,34.90
2022-08-27T06:44:54.431Z,35.00
2022-08-27T06:47:23.010Z,35.10
2022-08-27T06:49:53.020Z,35.20
2022-08-27T06:52:21.788Z,35.40
2022-08-27T06:54:50.494Z,35.60
2022-08-27T06:57:19.217Z,35.70
2022-08-27T06:59:48.433Z,35.80
2022-08-27T07:02:17.128Z,36.10
2022-08-27T07:04:45.750Z,36.50
2022-08-27T07:07:31.177Z,36.80
2022-08-27T07:10:05.773Z,37.30
2022-08-27T07:12:34.614Z,37.60
2022-08-27T07:15:03.432Z,38.00
2022-08-27T07:17:33.384Z,38.40
2022-08-27T07:20:03.629Z,38.70
2022-08-27T07:22:33.872Z,39.10
2022-08-27T07:25:02.946Z,39.40
2022-08-27T07:27:31.753Z,39.60
2022-08-27T07:30:01.721Z,39.80
2022-08-27T07:32:31.920Z,40.20
2022-08-27T07:35:00.907Z,40.60
2022-08-27T07:37:35.061Z,41.30
2022-08-27T07:40:10.787Z,42.10
2022-08-27T07:42:58.817Z,42.80
2022-08-27T07:45:28.772Z,43.50
2022-08-27T07:47:57.746Z,44.30
2022-08-27T07:50:26.538Z,44.90
2022-08-27T07:52:55.304Z,45.50
2022-08-27T07:55:25.238Z,46.10
2022-08-27T07:57:54.681Z,46.40
2022-08-27T08:00:23.652Z,46.80
2022-08-27T08:02:52.362Z,47.00
2022-08-27T08:05:21.582Z,47.20
2022-08-27T08:07:50.747Z,47.40
2022-08-27T08:10:22.395Z,47.60
2022-08-27T08:12:52.739Z,47.70
2022-08-27T08:15:21.942Z,47.80
2022-08-27T08:17:51.361Z,48.00
2022-08-27T08:20:31.100Z,48.20
2022-08-27T08:23:09.888Z,48.30
2022-08-27T08:25:39.578Z,48.40
2022-08-27T08:28:11.815Z,48.40
2022-08-27T08:30:43.949Z,48.40
2022-08-27T08:33:13.527Z,48.30
2022-08-27T08:35:42.987Z,48.50
2022-08-27T08:38:11.972Z,48.60
2022-08-27T08:40:44.699Z,48.70
2022-08-27T08:43:30.284Z,48.80
2022-08-27T08:46:09.998Z,49.00
2022-08-27T08:48:48.200Z,49.00
2022-08-27T08:51:26.617Z,49.20
2022-08-27T08:54:04.517Z,49.50
2022-08-27T08:56:44.716Z,49.60
2022-08-27T08:59:25.417Z,49.70
2022-08-27T09:01:54.829Z,49.80
2022-08-27T09:04:27.143Z,49.80
2022-08-27T09:07:02.967Z,49.40
2022-08-27T09:09:39.284Z,49.50
2022-08-27T09:12:16.468Z,49.70
2022-08-27T09:14:53.146Z,50.00
2022-08-27T09:17:23.302Z,50.20
2022-08-27T09:19:52.548Z,50.50
2022-08-27T09:22:44.266Z,50.60
2022-08-27T09:25:21.535Z,50.40
2022-08-27T09:27:59.877Z,50.60
2022-08-27T09:30:42.085Z,50.90
2022-08-27T09:33:10.733Z,51.20
2022-08-27T09:35:44.908Z,50.90
2022-08-27T09:38:28.039Z,50.90
2022-08-27T09:41:02.302Z,51.00
2022-08-27T09:43:32.596Z,51.20
2022-08-27T09:46:08.434Z,51.50
2022-08-27T09:48:38.947Z,51.70
2022-08-27T09:51:13.769Z,51.90
2022-08-27T09:53:52.639Z,52.00
2022-08-27T09:56:31.473Z,52.20
2022-08-27T09:59:06.627Z,52.20
2022-08-27T10:01:50.560Z,52.20
2022-08-27T10:04:28.861Z,52.20
2022-08-27T10:06:57.896Z,52.00
2022-08-27T10:09:37.082Z,52.10
2022-08-27T10:12:17.824Z,52.20
2022-08-27T10:14:53.074Z,52.30
2022-08-27T10:17:39.039Z,51.70
2022-08-27T10:20:25.794Z,51.70
2022-08-27T10:23:23.632Z,50.30
2022-08-27T10:26:05.302Z,50.30
2022-08-27T10:28:58.578Z,50.50
2022-08-27T10:31:40.233Z,50.50
2022-08-27T10:34:31.486Z,50.50
2022-08-27T10:37:22.274Z,50.40
2022-08-27T10:40:11.838Z,50.00
2022-08-27T10:42:57.588Z,49.60
2022-08-27T10:45:43.410Z,49.40
2022-08-27T10:48:27.098Z,49.10
2022-08-27T10:51:09.342Z,48.70
2022-08-27T10:53:51.122Z,48.50
2022-08-27T10:56:30.634Z,48.10
2022-08-27T10:59:17.595Z,47.90
2022-08-27T11:02:02.622Z,47.70
2022-08-27T11:04:38.411Z,47.50
2022-08-27T11:07:17.514Z,47.40
2022-08-27T11:09:57.044Z,47.30
2022-08-27T11:12:34.451Z,47.20
2022-08-27T11:15:12.885Z,47.10
2022-08-27T11:17:50.575Z,46.90
2022-08-27T11:20:28.340Z,46.90
2022-08-27T11:23:06.024Z,46.90
2022-08-27T11:25:52.674Z,46.80
2022-08-27T11:28:30.071Z,46.70
2022-08-27T11:31:10.726Z,46.50
2022-08-27T11:33:49.212Z,46.20
2022-08-27T11:37:04.062Z,45.90
2022-08-27T11:40:05.074Z,45.50
2022-08-27T11:42:42.209Z,45.00
2022-08-27T11:45:19.952Z,44.70
2022-08-27T11:47:57.687Z,44.30
2022-08-27T11:50:30.788Z,44.00
2022-08-27T11:53:03.218Z,43.80
2022-08-27T11:55:37.195Z,43.60
2022-08-27T11:58:11.876Z,43.30
2022-08-27T12:00:43.789Z,43.00
2022-08-27T12:03:31.130Z,42.80
2022-08-27T12:06:26.732Z,42.70
2022-08-27T12:09:13.904Z,42.40
2022-08-27T12:12:02.029Z,42.20
2022-08-27T12:14:45.963Z,42.10
2022-08-27T12:17:30.518Z,42.00
2022-08-27T12:20:19.580Z,41.90
2022-08-27T12:23:35.639Z,41.80
2022-08-27T12:26:32.750Z,41.80
2022-08-27T12:29:29.320Z,41.70
2022-08-27T12:32:15.657Z,41.40
2022-08-27T12:34:59.638Z,41.40
2022-08-27T12:37:34.852Z,41.40
2022-08-27T12:40:19.853Z,41.50
2022-08-27T12:42:49.633Z,41.50
2022-08-27T12:45:26.886Z,41.40
2022-08-27T12:47:57.024Z,40.90
2022-08-27T12:50:30.630Z,40.80
2022-08-27T12:53:27.372Z,41.00
2022-08-27T12:56:13.480Z,41.20
2022-08-27T12:58:53.599Z,41.30
2022-08-27T13:01:50.194Z,41.50
2022-08-27T13:04:26.494Z,41.50
2022-08-27T13:06:55.772Z,41.50
2022-08-27T13:09:31.562Z,41.30
2022-08-27T13:12:04.576Z,41.20
2022-08-27T13:14:39.414Z,41.20
2022-08-27T13:17:15.918Z,41.00
2022-08-27T13:19:51.028Z,41.00
2022-08-27T13:22:26.183Z,41.00
2022-08-27T13:24:57.313Z,40.90
2022-08-27T13:27:31.121Z,41.00
2022-08-27T13:30:06.632Z,40.90
2022-08-27T13:32:39.292Z,40.90
2022-08-27T13:35:10.002Z,40.90
2022-08-27T13:37:46.853Z,41.00
2022-08-27T13:40:28.933Z,41.00
2022-08-27T13:43:05.040Z,41.10
2022-08-27T13:45:41.660Z,41.00
2022-08-27T13:48:14.321Z,40.90
2022-08-27T13:50:53.184Z,41.00
2022-08-27T13:53:46.216Z,41.10
2022-08-27T13:56:28.211Z,41.30
2022-08-27T13:58:57.162Z,41.30
2022-08-27T14:01:33.023Z,41.40
2022-08-27T14:04:06.924Z,41.40
2022-08-27T14:06:43.135Z,41.50
2022-08-27T14:09:18.918Z,41.60
2022-08-27T14:11:48.274Z,41.70
2022-08-27T14:14:19.795Z,41.80
2022-08-27T14:17:00.296Z,42.00
2022-08-27T14:19:36.197Z,42.00
2022-08-27T14:22:06.264Z,41.90
2022-08-27T14:24:35.172Z,41.00
2022-08-27T14:27:09.401Z,40.90
2022-08-27T14:29:38.815Z,41.10
2022-08-27T14:32:07.851Z,41.10
2022-08-27T14:34:38.427Z,41.20
2022-08-27T14:37:07.869Z,41.30
2022-08-27T14:39:36.693Z,41.30
2022-08-27T14:42:07.103Z,41.10
2022-08-27T14:44:39.139Z,41.10
2022-08-27T14:47:10.217Z,41.10
2022-08-27T14:49:45.103Z,41.20
2022-08-27T14:52:16.597Z,41.10
2022-08-27T14:54:45.896Z,41.20
2022-08-27T14:57:15.559Z,41.10
2022-08-27T14:59:44.418Z,41.10
2022-08-27T15:02:15.085Z,41.00
2022-08-27T15:04:47.867Z,41.10
2022-08-27T15:07:17.342Z,41.00
2022-08-27T15:09:47.322Z,41.00
2022-08-27T15:12:26.451Z,40.90
2022-08-27T15:14:56.347Z,41.00
2022-08-27T15:17:35.099Z,41.00
2022-08-27T15:20:13.647Z,41.00
2022-08-27T15:22:50.899Z,41.00
2022-08-27T15:25:21.613Z,40.90
2022-08-27T15:27:51.125Z,40.90
2022-08-27T15:30:27.194Z,40.80
2022-08-27T15:32:57.154Z,40.90
2022-08-27T15:35:28.821Z,40.90
2022-08-27T15:37:59.545Z,40.90
2022-08-27T15:40:32.760Z,40.90
2022-08-27T15:43:06.279Z,40.80
2022-08-27T15:45:36.775Z,40.80
2022-08-27T15:48:06.402Z,40.80
2022-08-27T15:50:36.483Z,40.80
2022-08-27T15:53:09.947Z,40.80
2022-08-27T15:55:43.379Z,40.80
2022-08-27T15:58:13.023Z,40.80
2022-08-27T16:00:46.475Z,40.70
2022-08-27T16:03:17.307Z,40.70
2022-08-27T16:05:48.485Z,40.70
2022-08-27T16:08:17.063Z,40.60
2022-08-27T16:10:45.677Z,40.60
2022-08-27T16:13:14.467Z,40.50
2022-08-27T16:15:43.943Z,40.50
2022-08-27T16:18:13.916Z,40.50
2022-08-27T16:20:43.455Z,40.40
2022-08-27T16:23:14.085Z,40.40
2022-08-27T16:25:42.822Z,40.40
2022-08-27T16:28:12.460Z,40.40
2022-08-27T16:30:41.969Z,40.30
2022-08-27T16:33:12.064Z,40.20
2022-08-27T16:35:42.485Z,40.20
2022-08-27T16:38:13.761Z,40.20
2022-08-27T16:40:47.905Z,40.10
2022-08-27T16:43:21.311Z,40.00
2022-08-27T16:45:51.975Z,40.00
2022-08-27T16:48:39.570Z,40.00
2022-08-27T16:51:14.135Z,39.90
2022-08-27T16:53:47.504Z,39.80
2022-08-27T16:56:18.103Z,39.70
2022-08-27T16:58:50.788Z,39.70
2022-08-27T17:01:23.371Z,39.60
2022-08-27T17:04:08.783Z,39.50
2022-08-27T17:06:42.327Z,39.40
2022-08-27T17:09:13.370Z,39.30
2022-08-27T17:11:44.519Z,39.10
2022-08-27T17:14:13.533Z,39.00
2022-08-27T17:16:43.372Z,38.90
2022-08-27T17:19:16.868Z,38.80
2022-08-27T17:21:47.014Z,38.70
2022-08-27T17:24:17.019Z,38.60
2022-08-27T17:26:45.837Z,38.50
2022-08-27T17:29:14.667Z,38.40
2022-08-27T17:31:44.648Z,38.30
2022-08-27T17:34:18.132Z,38.20
2022-08-27T17:36:47.233Z,38.10
2022-08-27T17:39:17.803Z,38.00
2022-08-27T17:41:50.835Z,37.90
2022-08-27T17:44:25.227Z,37.80
2022-08-27T17:46:56.619Z,37.70
2022-08-27T17:49:26.923Z,37.50
2022-08-27T17:52:00.406Z,37.50
2022-08-27T17:54:36.071Z,37.40
2022-08-27T17:57:11.680Z,37.30
2022-08-27T17:59:40.466Z,37.20
2022-08-27T18:02:11.161Z,37.10
2022-08-27T18:04:39.758Z,37.00
2022-08-27T18:07:08.537Z,36.90
2022-08-27T18:09:38.515Z,36.90
2022-08-27T18:12:08.240Z,36.80
2022-08-27T18:14:37.316Z,36.70
2022-08-27T18:17:06.076Z,36.60
2022-08-27T18:19:35.025Z,36.60
2022-08-27T18:22:06.455Z,36.50
2022-08-27T18:24:35.068Z,36.40
2022-08-27T18:27:05.445Z,36.40
2022-08-27T18:29:34.818Z,36.40
2022-08-27T18:32:05.056Z,36.30
2022-08-27T18:34:33.728Z,36.30
2022-08-27T18:37:02.541Z,36.20
2022-08-27T18:39:31.361Z,36.20
2022-08-27T18:42:01.282Z,36.10
2022-08-27T18:44:36.516Z,36.10
2022-08-27T18:47:05.904Z,36.10
2022-08-27T18:49:34.819Z,36.00
2022-08-27T18:52:03.889Z,36.00
2022-08-27T18:54:32.972Z,35.90
2022-08-27T18:57:01.886Z,35.90
2022-08-27T18:59:32.364Z,35.80
2022-08-27T19:02:02.216Z,35.80
2022-08-27T19:04:35.165Z,35.70
2022-08-27T19:07:03.853Z,35.60
2022-08-27T19:09:32.685Z,35.60
2022-08-27T19:12:01.237Z,35.50
2022-08-27T19:14:31.165Z,35.40
2022-08-27T19:17:03.538Z,35.40
2022-08-27T19:19:32.575Z,35.30
2022-08-27T19:22:06.760Z,35.30
2022-08-27T19:24:37.435Z,35.20
2022-08-27T19:27:09.303Z,35.20
2022-08-27T19:29:39.213Z,35.20
2022-08-27T19:32:07.996Z,35.10
2022-08-27T19:34:36.978Z,35.10
2022-08-27T19:37:09.409Z,35.20
2022-08-27T19:39:39.268Z,35.20
2022-08-27T19:42:08.403Z,35.20
2022-08-27T19:44:38.792Z,35.20
2022-08-27T19:47:11.942Z,35.20
2022-08-27T19:49:41.985Z,35.20
2022-08-27T19:52:10.774Z,35.20
2022-08-27T19:54:56.855Z,35.20
2022-08-27T19:57:28.130Z,35.20
2022-08-27T19:59:58.039Z,35.20
2022-08-27T20:02:27.418Z,35.20
2022-08-27T20:05:17.082Z,35.20
2022-08-27T20:07:44.891Z,35.20
2022-08-27T20:10:13.989Z,35.20
2022-08-27T20:12:45.065Z,35.20
2022-08-27T20:15:15.699Z,35.10
2022-08-27T20:17:45.098Z,35.10
2022-08-27T20:20:14.824Z,35.00
2022-08-27T20:22:44.215Z,35.00
2022-08-27T20:25:13.716Z,34.90
2022-08-27T20:27:43.684Z,34.80
2022-08-27T20:30:16.959Z,34.80
2022-08-27T20:32:47.216Z,34.70
2022-08-27T20:35:17.504Z,34.60
2022-08-27T20:37:47.099Z,34.50
2022-08-27T20:40:22.436Z,34.40
2022-08-27T20:42:51.239Z,34.40
2022-08-27T20:45:21.857Z,34.30
2022-08-27T20:47:52.720Z,34.30
2022-08-27T20:50:23.737Z,34.30
2022-08-27T20:52:53.173Z,34.30
2022-08-27T20:55:23.654Z,34.30
2022-08-27T20:58:10.285Z,34.30
2022-08-27T21:00:44.069Z,34.20
2022-08-27T21:03:15.787Z,34.20
2022-08-27T21:05:47.181Z,34.10
2022-08-27T21:08:19.367Z,34.10
2022-08-27T21:10:50.342Z,34.00
2022-08-27T21:13:21.747Z,34.00
2022-08-27T21:15:55.496Z,34.00
2022-08-27T21:18:29.759Z,33.90
2022-08-27T21:20:59.215Z,33.90
2022-08-27T21:23:29.168Z,33.90
2022-08-27T21:26:02.501Z,33.90
2022-08-27T21:28:33.979Z,33.80
2022-08-27T21:31:03.964Z,33.80
2022-08-27T21:33:34.195Z,33.80
2022-08-27T21:36:12.008Z,33.80
2022-08-27T21:38:42.023Z,33.70
2022-08-27T21:41:10.801Z,33.70
2022-08-27T21:43:39.414Z,33.70
2022-08-27T21:46:09.552Z,33.70
2022-08-27T21:48:39.449Z,33.60
2022-08-27T21:51:10.037Z,33.60
2022-08-27T21:53:39.406Z,33.60
2022-08-27T21:56:08.890Z,33.50
2022-08-27T21:58:38.579Z,33.50
2022-08-27T22:01:09.293Z,33.50
2022-08-27T22:03:38.277Z,33.50
2022-08-27T22:06:08.139Z,33.40
2022-08-27T22:08:36.928Z,33.40
2022-08-27T22:11:06.638Z,33.30
2022-08-27T22:13:35.247Z,33.30
2022-08-27T22:16:05.205Z,33.30
2022-08-27T22:18:35.907Z,33.20
2022-08-27T22:21:08.141Z,33.20
2022-08-27T22:23:36.776Z,33.20
2022-08-27T22:26:05.685Z,33.20
2022-08-27T22:28:34.443Z,33.20
2022-08-27T22:31:03.191Z,33.20
2022-08-27T22:33:31.800Z,33.20
2022-08-27T22:36:02.501Z,33.30
2022-08-27T22:38:31.081Z,33.20
2022-08-27T22:40:59.684Z,33.20
2022-08-27T22:43:30.043Z,33.10
2022-08-27T22:45:58.877Z,33.10
2022-08-27T22:48:27.487Z,33.10
2022-08-27T22:50:56.253Z,33.00
2022-08-27T22:53:26.152Z,33.00
2022-08-27T22:55:56.413Z,32.90
2022-08-27T22:58:25.265Z,32.90
2022-08-27T23:00:55.751Z,32.90
2022-08-27T23:03:24.479Z,32.80
2022-08-27T23:05:53.323Z,32.80
2022-08-27T23:08:23.090Z,32.70
2022-08-27T23:10:54.670Z,32.70
2022-08-27T23:13:23.597Z,32.70
2022-08-27T23:15:52.142Z,32.60
2022-08-27T23:18:20.742Z,32.50
2022-08-27T23:20:49.459Z,32.50
2022-08-27T23:23:20.244Z,32.50
2022-08-27T23:26:06.765Z,32.50
2022-08-27T23:28:36.928Z,32.40
2022-08-27T23:31:05.626Z,32.40
2022-08-27T23:33:34.253Z,32.40
2022-08-27T23:36:03.541Z,32.30
2022-08-27T23:38:32.145Z,32.30
2022-08-27T23:41:00.988Z,32.30
2022-08-27T23:43:30.227Z,32.30
2022-08-27T23:46:00.272Z,32.30
2022-08-27T23:48:28.970Z,32.20
2022-08-27T23:50:57.878Z,32.20
2022-08-27T23:53:26.678Z,32.20
2022-08-27T23:55:55.538Z,32.10
2022-08-27T23:58:24.374Z,32.10
